createdAt,value
2023-04-23T00:01:58.087Z,100.00
2023-04-23T00:04:27.011Z,100.00
2023-04-23T00:06:55.245Z,100.00
2023-04-23T00:09:24.751Z,100.00
2023-04-23T00:11:53.202Z,100.00
2023-04-23T00:14:21.220Z,100.00
2023-04-23T00:16:49.546Z,100.00
2023-04-23T00:19:17.319Z,100.00
2023-04-23T00:21:45.120Z,100.00
2023-04-23T00:24:12.832Z,100.00
2023-04-23T00:26:42.041Z,100.00
2023-04-23T00:29:09.637Z,100.00
2023-04-23T00:31:37.426Z,100.00
2023-04-23T00:34:05.134Z,100.00
2023-04-23T00:36:32.919Z,100.00
2023-04-23T00:39:00.578Z,100.00
2023-04-23T00:41:29.273Z,100.00
2023-04-23T00:43:59.406Z,100.00
2023-04-23T00:46:27.641Z,100.00
2023-04-23T00:48:55.722Z,100.00
2023-04-23T00:51:24.584Z,100.00
2023-04-23T00:53:52.908Z,100.00
2023-04-23T00:56:20.880Z,100.00
2023-04-23T00:58:50.877Z,100.00
2023-04-23T01:01:20.738Z,100.00
2023-04-23T01:03:50.465Z,100.00
2023-04-23T01:06:18.797Z,100.00
2023-04-23T01:08:46.996Z,100.00
2023-04-23T01:11:15.608Z,100.00
2023-04-23T01:13:44.044Z,100.00
2023-04-23T01:16:12.548Z,100.00
2023-04-23T01:18:42.099Z,100.00
2023-04-23T01:21:11.526Z,100.00
2023-04-23T01:23:41.068Z,100.00
2023-04-23T01:26:10.696Z,100.00
2023-04-23T01:28:38.747Z,100.00
2023-04-23T01:31:15.496Z,100.00
2023-04-23T01:33:44.040Z,100.00
2023-04-23T01:36:12.273Z,100.00
2023-04-23T01:38:42.060Z,100.00
2023-04-23T01:41:10.578Z,100.00
2023-04-23T01:43:38.641Z,100.00
2023-04-23T01:46:06.758Z,100.00
2023-04-23T01:48:34.919Z,100.00
2023-04-23T01:51:03.021Z,100.00
2023-04-23T01:53:31.281Z,100.00
2023-04-23T01:56:02.312Z,100.00
2023-04-23T01:58:30.500Z,100.00
2023-04-23T02:00:58.189Z,100.00
2023-04-23T02:03:26.264Z,100.00
2023-04-23T02:05:55.518Z,100.00
2023-04-23T02:08:23.365Z,100.00
2023-04-23T02:10:50.940Z,100.00
2023-04-23T02:13:19.915Z,100.00
2023-04-23T02:15:47.570Z,100.00
2023-04-23T02:18:15.237Z,100.00
2023-04-23T02:20:42.877Z,100.00
2023-04-23T02:23:10.625Z,100.00
2023-04-23T02:25:39.299Z,100.00
2023-04-23T02:28:07.666Z,100.00
2023-04-23T02:30:37.079Z,100.00
2023-04-23T02:33:05.088Z,100.00
2023-04-23T02:35:32.708Z,100.00
2023-04-23T02:38:00.255Z,100.00
2023-04-23T02:40:27.842Z,100.00
2023-04-23T02:42:55.756Z,100.00
2023-04-23T02:45:23.338Z,100.00
2023-04-23T02:47:53.389Z,100.00
2023-04-23T02:50:21.363Z,100.00
2023-04-23T02:52:49.794Z,100.00
2023-04-23T02:55:17.719Z,100.00
2023-04-23T02:57:45.463Z,100.00
2023-04-23T03:00:15.150Z,100.00
2023-04-23T03:02:42.940Z,100.00
2023-04-23T03:05:12.690Z,100.00
2023-04-23T03:07:40.610Z,100.00
2023-04-23T03:10:09.355Z,100.00
2023-04-23T03:12:36.982Z,100.00
2023-04-23T03:15:05.012Z,100.00
2023-04-23T03:17:32.598Z,100.00
2023-04-23T03:20:00.846Z,100.00
2023-04-23T03:22:29.758Z,100.00
2023-04-23T03:24:57.406Z,100.00
2023-04-23T03:27:24.982Z,100.00
2023-04-23T03:29:52.602Z,100.00
2023-04-23T03:32:20.298Z,100.00
2023-04-23T03:34:47.956Z,100.00
2023-04-23T03:37:15.610Z,100.00
2023-04-23T03:39:44.591Z,100.00
2023-04-23T03:42:12.174Z,100.00
2023-04-23T03:44:40.070Z,100.00
2023-04-23T03:47:07.875Z,100.00
2023-04-23T03:49:35.516Z,100.00
2023-04-23T03:52:03.175Z,100.00
2023-04-23T03:54:30.882Z,100.00
2023-04-23T03:57:00.346Z,100.00
2023-04-23T03:59:28.012Z,100.00
2023-04-23T04:01:55.594Z,100.00
2023-04-23T04:04:23.328Z,100.00
2023-04-23T04:06:51.176Z,100.00
2023-04-23T04:09:18.878Z,100.00
2023-04-23T04:11:46.801Z,100.00
2023-04-23T04:14:15.841Z,100.00
2023-04-23T04:16:43.425Z,100.00
2023-04-23T04:19:11.034Z,100.00
2023-04-23T04:21:38.695Z,100.00
2023-04-23T04:24:06.681Z,100.00
2023-04-23T04:26:34.833Z,100.00
2023-04-23T04:29:02.666Z,100.00
2023-04-23T04:31:32.278Z,100.00
2023-04-23T04:33:59.970Z,100.00
2023-04-23T04:36:28.890Z,100.00
2023-04-23T04:38:58.556Z,100.00
2023-04-23T04:41:27.663Z,100.00
2023-04-23T04:43:55.720Z,100.00
2023-04-23T04:46:23.447Z,100.00
2023-04-23T04:48:52.424Z,100.00
2023-04-23T04:51:20.030Z,100.00
2023-04-23T04:53:47.640Z,100.00
2023-04-23T04:56:15.344Z,100.00
2023-04-23T04:58:42.947Z,100.00
2023-04-23T05:01:10.930Z,100.00
2023-04-23T05:03:39.373Z,100.00
2023-04-23T05:06:08.728Z,100.00
2023-04-23T05:08:36.424Z,100.00
2023-04-23T05:11:05.066Z,100.00
2023-04-23T05:13:32.885Z,100.00
2023-04-23T05:16:00.659Z,100.00
2023-04-23T05:18:28.875Z,100.00
2023-04-23T05:20:56.565Z,100.00
2023-04-23T05:23:25.690Z,100.00
2023-04-23T05:25:55.915Z,100.00
2023-04-23T05:28:23.707Z,100.00
2023-04-23T05:30:51.775Z,100.00
2023-04-23T05:33:19.444Z,100.00
2023-04-23T05:35:47.214Z,100.00
2023-04-23T05:38:14.829Z,100.00
2023-04-23T05:40:43.784Z,100.00
2023-04-23T05:43:11.448Z,100.00
2023-04-23T05:45:39.118Z,100.00
2023-04-23T05:48:06.813Z,100.00
2023-04-23T05:50:34.384Z,100.00
2023-04-23T05:53:02.039Z,100.00
2023-04-23T05:55:29.740Z,100.00
2023-04-23T05:57:58.705Z,100.00
2023-04-23T06:00:26.338Z,100.00
2023-04-23T06:02:54.191Z,100.00
2023-04-23T06:05:22.296Z,100.00
2023-04-23T06:07:50.152Z,100.00
2023-04-23T06:10:17.789Z,100.00
2023-04-23T06:12:45.550Z,100.00
2023-04-23T06:15:14.545Z,100.00
2023-04-23T06:17:42.219Z,100.00
2023-04-23T06:20:11.743Z,100.00
2023-04-23T06:22:39.613Z,100.00
2023-04-23T06:25:07.994Z,100.00
2023-04-23T06:27:35.555Z,100.00
2023-04-23T06:30:03.375Z,100.00
2023-04-23T06:32:32.321Z,100.00
2023-04-23T06:35:01.998Z,100.00
2023-04-23T06:37:31.589Z,100.00
2023-04-23T06:40:00.052Z,100.00
2023-04-23T06:42:27.688Z,100.00
2023-04-23T06:44:55.742Z,100.00
2023-04-23T06:47:23.523Z,100.00
2023-04-23T06:49:52.506Z,100.00
2023-04-23T06:52:20.202Z,100.00
2023-04-23T06:54:47.788Z,100.00
2023-04-23T06:57:16.114Z,100.00
2023-04-23T06:59:43.726Z,100.00
2023-04-23T07:02:11.779Z,100.00
2023-04-23T07:04:39.543Z,100.00
2023-04-23T07:07:08.671Z,100.00
2023-04-23T07:09:36.325Z,100.00
2023-04-23T07:12:04.034Z,100.00
2023-04-23T07:14:31.645Z,99.70
2023-04-23T07:16:59.910Z,99.45
2023-04-23T07:19:27.584Z,98.76
2023-04-23T07:21:55.254Z,97.74
2023-04-23T07:24:26.370Z,95.90
2023-04-23T07:26:53.969Z,95.77
2023-04-23T07:29:21.820Z,95.07
2023-04-23T07:31:49.384Z,94.24
2023-04-23T07:34:17.073Z,94.90
2023-04-23T07:36:44.818Z,92.71
2023-04-23T07:39:12.715Z,91.92
2023-04-23T07:41:41.944Z,91.47
2023-04-23T07:44:09.600Z,91.04
2023-04-23T07:46:37.304Z,89.68
2023-04-23T07:49:04.858Z,90.80
2023-04-23T07:51:32.415Z,90.92
2023-04-23T07:54:00.235Z,89.15
2023-04-23T07:56:28.000Z,88.32
2023-04-23T07:58:58.249Z,86.94
2023-04-23T08:01:26.078Z,88.16
2023-04-23T08:03:59.157Z,88.86
2023-04-23T08:06:27.782Z,88.84
2023-04-23T08:08:56.085Z,90.01
2023-04-23T08:11:23.735Z,89.86
2023-04-23T08:13:51.400Z,89.00
2023-04-23T08:16:20.525Z,89.55
2023-04-23T08:19:03.760Z,90.75
2023-04-23T08:21:32.977Z,89.27
2023-04-23T08:24:01.195Z,87.96
2023-04-23T08:26:28.787Z,88.35
2023-04-23T08:28:56.692Z,88.89
2023-04-23T08:31:27.185Z,88.54
2023-04-23T08:33:55.229Z,88.00
2023-04-23T08:36:22.849Z,88.46
2023-04-23T08:38:50.409Z,86.62
2023-04-23T08:41:21.189Z,86.65
2023-04-23T08:43:52.296Z,86.91
2023-04-23T08:46:21.140Z,87.69
2023-04-23T08:48:54.152Z,86.98
2023-04-23T08:51:23.241Z,86.79
2023-04-23T08:53:53.265Z,85.33
2023-04-23T08:56:21.207Z,86.18
2023-04-23T08:58:49.868Z,85.75
2023-04-23T09:01:17.674Z,84.01
2023-04-23T09:03:46.029Z,83.36
2023-04-23T09:06:15.160Z,82.45
2023-04-23T09:08:43.140Z,82.24
2023-04-23T09:11:10.743Z,80.07
2023-04-23T09:13:38.434Z,80.79
2023-04-23T09:16:06.427Z,80.45
2023-04-23T09:18:34.101Z,79.42
2023-04-23T09:21:03.973Z,77.84
2023-04-23T09:23:34.536Z,76.78
2023-04-23T09:26:07.075Z,75.88
2023-04-23T09:28:38.137Z,75.89
2023-04-23T09:31:06.485Z,76.29
2023-04-23T09:33:36.297Z,75.79
2023-04-23T09:36:07.057Z,75.80
2023-04-23T09:38:36.032Z,76.30
2023-04-23T09:41:21.866Z,75.63
2023-04-23T09:43:49.745Z,75.58
2023-04-23T09:46:17.305Z,74.76
2023-04-23T09:48:45.975Z,74.25
2023-04-23T09:51:14.939Z,73.96
2023-04-23T09:53:45.829Z,73.95
2023-04-23T09:56:13.434Z,73.36
2023-04-23T09:58:40.998Z,72.17
2023-04-23T10:01:09.397Z,72.36
2023-04-23T10:03:38.582Z,71.94
2023-04-23T10:06:17.263Z,70.70
2023-04-23T10:08:54.656Z,72.04
2023-04-23T10:11:22.426Z,71.17
2023-04-23T10:13:50.479Z,71.07
2023-04-23T10:16:24.423Z,71.33
2023-04-23T10:18:56.999Z,72.48
2023-04-23T10:21:30.667Z,72.33
2023-04-23T10:24:07.242Z,72.70
2023-04-23T10:26:36.030Z,73.98
2023-04-23T10:29:04.150Z,73.32
2023-04-23T10:31:33.602Z,73.55
2023-04-23T10:34:01.985Z,72.71
2023-04-23T10:36:29.827Z,71.19
2023-04-23T10:39:00.777Z,70.07
2023-04-23T10:41:37.342Z,69.29
2023-04-23T10:44:05.750Z,70.06
2023-04-23T10:46:36.434Z,69.86
2023-04-23T10:49:07.499Z,70.49
2023-04-23T10:52:14.584Z,69.38
2023-04-23T10:54:23.337Z,68.94
2023-04-23T10:56:59.657Z,70.27
2023-04-23T10:59:29.484Z,68.44
2023-04-23T11:01:58.818Z,68.70
2023-04-23T11:04:28.776Z,67.63
2023-04-23T11:06:58.730Z,67.27
2023-04-23T11:09:30.628Z,67.19
2023-04-23T11:11:59.883Z,67.47
2023-04-23T11:14:38.532Z,68.08
2023-04-23T11:17:07.369Z,66.98
2023-04-23T11:19:36.968Z,66.85
2023-04-23T11:22:06.521Z,66.42
2023-04-23T11:24:37.064Z,66.92
2023-04-23T11:27:08.438Z,68.61
2023-04-23T11:29:36.028Z,68.28
2023-04-23T11:32:05.343Z,68.44
2023-04-23T11:34:34.081Z,66.04
2023-04-23T11:37:04.836Z,66.81
2023-04-23T11:39:32.425Z,66.36
2023-04-23T11:42:02.948Z,67.02
2023-04-23T11:44:32.267Z,66.05
2023-04-23T11:47:02.178Z,64.68
2023-04-23T11:49:29.864Z,64.97
2023-04-23T11:52:00.442Z,64.74
2023-04-23T11:54:29.495Z,64.11
2023-04-23T11:56:58.010Z,64.22
2023-04-23T11:59:25.805Z,64.61
2023-04-23T12:01:56.103Z,65.50
2023-04-23T12:04:24.958Z,63.84
2023-04-23T12:06:54.601Z,63.05
2023-04-23T12:09:23.019Z,61.95
2023-04-23T12:11:52.010Z,61.35
2023-04-23T12:14:23.883Z,62.47
2023-04-23T12:16:52.413Z,63.72
2023-04-23T12:19:27.594Z,63.15
2023-04-23T12:21:57.071Z,63.94
2023-04-23T12:24:26.124Z,62.97
2023-04-23T12:26:55.951Z,62.97
2023-04-23T12:29:24.130Z,62.54
2023-04-23T12:31:53.243Z,61.53
2023-04-23T12:34:22.522Z,60.90
2023-04-23T12:36:51.405Z,61.12
2023-04-23T12:39:23.810Z,62.13
2023-04-23T12:41:52.404Z,62.87
2023-04-23T12:44:20.161Z,60.87
2023-04-23T12:46:51.037Z,61.72
2023-04-23T12:49:18.814Z,59.39
2023-04-23T12:51:48.100Z,60.46
2023-04-23T12:54:15.668Z,62.44
2023-04-23T12:56:43.286Z,61.16
2023-04-23T12:59:11.859Z,61.70
2023-04-23T13:01:39.522Z,60.79
2023-04-23T13:04:07.832Z,59.54
2023-04-23T13:06:35.795Z,61.94
2023-04-23T13:09:05.351Z,60.86
2023-04-23T13:11:33.283Z,62.26
2023-04-23T13:14:00.896Z,61.29
2023-04-23T13:16:28.576Z,61.42
2023-04-23T13:18:56.360Z,61.81
2023-04-23T13:21:26.218Z,61.92
2023-04-23T13:23:54.408Z,62.48
2023-04-23T13:26:23.536Z,61.66
2023-04-23T13:28:51.240Z,62.12
2023-04-23T13:31:18.877Z,63.58
2023-04-23T13:33:46.552Z,64.04
2023-04-23T13:36:14.168Z,62.90
2023-04-23T13:38:41.807Z,60.50
2023-04-23T13:41:09.420Z,60.72
2023-04-23T13:43:38.416Z,61.84
2023-04-23T13:46:06.154Z,62.65
2023-04-23T13:48:33.884Z,63.24
2023-04-23T13:51:02.235Z,62.07
2023-04-23T13:53:30.072Z,61.54
2023-04-23T13:55:58.117Z,62.93
2023-04-23T13:58:25.810Z,61.59
2023-04-23T14:00:54.711Z,61.79
2023-04-23T14:03:22.460Z,62.82
2023-04-23T14:05:50.187Z,62.26
2023-04-23T14:08:17.837Z,62.81
2023-04-23T14:10:45.667Z,62.65
2023-04-23T14:13:13.332Z,62.20
2023-04-23T14:15:42.662Z,62.00
2023-04-23T14:18:11.925Z,62.02
2023-04-23T14:20:39.594Z,61.59
2023-04-23T14:23:46.879Z,61.07
2023-04-23T14:26:29.522Z,61.51
2023-04-23T14:29:05.318Z,62.32
2023-04-23T14:31:34.005Z,62.70
2023-04-23T14:34:02.996Z,61.74
2023-04-23T14:36:30.704Z,60.39
2023-04-23T14:39:04.804Z,61.66
2023-04-23T14:41:32.862Z,62.82
2023-04-23T14:44:01.902Z,62.91
2023-04-23T14:46:29.707Z,62.40
2023-04-23T14:48:57.394Z,62.51
2023-04-23T14:51:27.303Z,63.46
2023-04-23T14:53:56.675Z,63.97
2023-04-23T14:56:24.743Z,64.33
2023-04-23T14:58:52.281Z,64.35
2023-04-23T15:01:19.985Z,65.20
2023-04-23T15:03:47.826Z,64.82
2023-04-23T15:06:15.642Z,66.03
2023-04-23T15:08:44.641Z,66.50
2023-04-23T15:11:14.041Z,65.31
2023-04-23T15:13:46.131Z,66.08
2023-04-23T15:16:29.041Z,66.43
2023-04-23T15:19:10.028Z,66.48
2023-04-23T15:21:37.990Z,69.53
2023-04-23T15:24:07.805Z,71.66
2023-04-23T15:26:36.346Z,73.65
2023-04-23T15:29:04.957Z,73.68
2023-04-23T15:31:32.728Z,73.90
2023-04-23T15:34:01.064Z,74.11
2023-04-23T15:36:28.813Z,73.91
2023-04-23T15:38:56.491Z,72.47
2023-04-23T15:41:27.075Z,73.08
2023-04-23T15:43:55.522Z,74.10
2023-04-23T15:46:23.165Z,77.98
2023-04-23T15:48:50.849Z,79.16
2023-04-23T15:51:18.639Z,81.76
2023-04-23T15:53:46.254Z,83.37
2023-04-23T15:56:13.894Z,81.31
2023-04-23T15:58:42.923Z,82.84
2023-04-23T16:01:11.285Z,85.46
2023-04-23T16:03:39.148Z,87.88
2023-04-23T16:06:07.156Z,90.03
2023-04-23T16:08:34.856Z,93.23
2023-04-23T16:11:03.386Z,93.94
2023-04-23T16:13:31.113Z,94.95
2023-04-23T16:16:00.214Z,95.75
2023-04-23T16:18:27.948Z,97.64
2023-04-23T16:20:55.627Z,98.36
2023-04-23T16:23:23.239Z,98.21
2023-04-23T16:25:51.116Z,98.10
2023-04-23T16:28:19.297Z,98.65
2023-04-23T16:30:47.421Z,97.57
2023-04-23T16:33:16.763Z,96.09
2023-04-23T16:35:44.790Z,93.38
2023-04-23T16:38:12.900Z,94.20
2023-04-23T16:40:40.586Z,96.49
2023-04-23T16:43:08.393Z,96.85
2023-04-23T16:45:36.435Z,98.45
2023-04-23T16:48:04.532Z,98.31
2023-04-23T16:50:33.698Z,100.00
2023-04-23T16:53:02.210Z,98.83
2023-04-23T16:55:30.384Z,99.51
2023-04-23T16:57:58.398Z,100.00
2023-04-23T17:00:26.551Z,98.87
2023-04-23T17:02:54.681Z,96.67
2023-04-23T17:05:24.112Z,96.26
2023-04-23T17:07:53.889Z,96.26
2023-04-23T17:10:21.639Z,96.77
2023-04-23T17:12:53.854Z,98.42
2023-04-23T17:15:22.605Z,98.96
2023-04-23T17:17:50.504Z,97.41
2023-04-23T17:20:18.648Z,96.32
2023-04-23T17:22:48.139Z,95.81
2023-04-23T17:25:17.514Z,95.49
2023-04-23T17:27:45.875Z,94.92
2023-04-23T17:30:14.241Z,92.89
2023-04-23T17:32:41.863Z,94.44
2023-04-23T17:35:10.991Z,95.52
2023-04-23T17:37:39.000Z,94.33
2023-04-23T17:40:08.128Z,94.49
2023-04-23T17:42:37.142Z,94.15
2023-04-23T17:45:05.875Z,94.33
2023-04-23T17:47:33.521Z,93.03
2023-04-23T17:50:01.117Z,93.36
2023-04-23T17:52:28.746Z,92.91
2023-04-23T17:54:56.697Z,93.37
2023-04-23T17:57:24.339Z,93.98
2023-04-23T17:59:53.246Z,94.78
2023-04-23T18:02:21.217Z,95.93
2023-04-23T18:04:48.850Z,96.17
2023-04-23T18:07:16.514Z,97.91
2023-04-23T18:09:44.107Z,98.01
2023-04-23T18:12:11.832Z,97.83
2023-04-23T18:14:39.417Z,96.98
2023-04-23T18:17:08.434Z,98.36
2023-04-23T18:19:36.024Z,98.60
2023-04-23T18:22:03.661Z,98.45
2023-04-23T18:24:31.245Z,98.18
2023-04-23T18:26:59.006Z,99.46
2023-04-23T18:29:29.332Z,99.94
2023-04-23T18:31:57.295Z,99.77
2023-04-23T18:34:26.330Z,99.61
2023-04-23T18:36:55.742Z,99.00
2023-04-23T18:39:23.454Z,98.84
2023-04-23T18:41:51.401Z,99.74
2023-04-23T18:44:19.292Z,99.33
2023-04-23T18:46:46.962Z,98.75
2023-04-23T18:49:41.307Z,99.60
2023-04-23T18:52:09.040Z,99.46
2023-04-23T18:54:36.642Z,99.24
2023-04-23T18:57:04.349Z,97.66
2023-04-23T18:59:34.827Z,98.31
2023-04-23T19:02:03.117Z,98.76
2023-04-23T19:04:31.931Z,99.85
2023-04-23T19:07:01.286Z,100.00
2023-04-23T19:09:28.959Z,99.50
2023-04-23T19:11:56.692Z,100.00
2023-04-23T19:14:24.261Z,100.00
2023-04-23T19:16:51.903Z,100.00
2023-04-23T19:19:19.567Z,100.00
2023-04-23T19:21:47.192Z,99.49
2023-04-23T19:24:16.127Z,100.00
2023-04-23T19:26:45.675Z,100.00
2023-04-23T19:29:13.317Z,100.00
2023-04-23T19:31:40.914Z,98.87
2023-04-23T19:34:08.614Z,98.63
2023-04-23T19:36:36.241Z,96.18
2023-04-23T19:39:03.797Z,95.19
2023-04-23T19:41:32.776Z,95.17
2023-04-23T19:44:00.364Z,94.93
2023-04-23T19:46:27.947Z,95.29
2023-04-23T19:48:55.953Z,95.69
2023-04-23T19:51:24.855Z,94.21
2023-04-23T19:53:53.903Z,93.93
2023-04-23T19:56:22.940Z,94.26
2023-04-23T19:58:51.898Z,93.83
2023-04-23T20:01:19.725Z,93.66
2023-04-23T20:03:50.756Z,93.15
2023-04-23T20:06:18.561Z,93.93
2023-04-23T20:09:01.964Z,92.98
2023-04-23T20:11:29.743Z,93.29
2023-04-23T20:13:58.718Z,93.45
2023-04-23T20:16:26.398Z,93.92
2023-04-23T20:18:55.428Z,94.21
2023-04-23T20:21:23.388Z,94.40
2023-04-23T20:23:53.132Z,94.05
2023-04-23T20:26:21.607Z,94.23
2023-04-23T20:28:50.126Z,94.35
2023-04-23T20:31:21.162Z,95.02
2023-04-23T20:33:48.907Z,95.39
2023-04-23T20:36:16.891Z,96.03
2023-04-23T20:38:44.850Z,96.25
2023-04-23T20:41:12.675Z,95.92
2023-04-23T20:43:40.474Z,96.57
2023-04-23T20:46:10.169Z,96.52
2023-04-23T20:48:39.366Z,97.64
2023-04-23T20:51:11.114Z,98.58
2023-04-23T20:53:39.010Z,99.12
2023-04-23T20:56:07.090Z,98.51
2023-04-23T20:58:36.302Z,98.54
2023-04-23T21:01:07.258Z,97.75
2023-04-23T21:03:36.985Z,98.52
2023-04-23T21:06:07.773Z,98.59
2023-04-23T21:08:37.828Z,98.86
2023-04-23T21:11:09.922Z,99.35
2023-04-23T21:13:38.612Z,99.57
2023-04-23T21:16:06.720Z,98.74
2023-04-23T21:18:34.857Z,98.30
2023-04-23T21:21:03.071Z,98.41
2023-04-23T21:23:32.411Z,98.97
2023-04-23T21:26:00.318Z,98.00
2023-04-23T21:28:28.282Z,98.62
2023-04-23T21:30:56.973Z,98.53
2023-04-23T21:33:25.805Z,98.65
2023-04-23T21:35:54.633Z,98.46
2023-04-23T21:38:22.325Z,100.00
2023-04-23T21:40:51.615Z,99.96
2023-04-23T21:43:19.829Z,100.00
2023-04-23T21:45:47.990Z,100.00
2023-04-23T21:48:15.924Z,100.00
2023-04-23T21:50:43.891Z,100.00
2023-04-23T21:53:13.246Z,100.00
2023-04-23T21:55:41.350Z,100.00
2023-04-23T22:00:41.533Z,100.00
2023-04-23T22:03:11.426Z,100.00
2023-04-23T22:05:39.608Z,100.00
2023-04-23T22:08:07.895Z,100.00
2023-04-23T22:10:38.492Z,100.00
2023-04-23T22:13:06.392Z,100.00
2023-04-23T22:15:35.482Z,100.00
2023-04-23T22:18:03.196Z,100.00
2023-04-23T22:20:31.554Z,100.00
2023-04-23T22:22:59.287Z,100.00
2023-04-23T22:25:27.262Z,100.00
2023-04-23T22:27:55.012Z,100.00
2023-04-23T22:30:22.640Z,100.00
2023-04-23T22:32:51.794Z,100.00
2023-04-23T22:35:19.965Z,100.00
2023-04-23T22:37:47.728Z,100.00
2023-04-23T22:40:15.446Z,100.00
2023-04-23T22:42:43.401Z,100.00
2023-04-23T22:45:11.592Z,100.00
2023-04-23T22:47:39.374Z,100.00
2023-04-23T22:50:09.979Z,100.00
2023-04-23T22:52:37.861Z,100.00
2023-04-23T22:55:06.364Z,100.00
2023-04-23T22:57:34.138Z,100.00
2023-04-23T23:00:01.965Z,100.00
2023-04-23T23:02:29.723Z,100.00
2023-04-23T23:04:57.644Z,100.00
2023-04-23T23:07:26.747Z,100.00
2023-04-23T23:09:54.585Z,100.00
2023-04-23T23:12:22.402Z,100.00
2023-04-23T23:14:50.202Z,100.00
2023-04-23T23:17:17.829Z,100.00
2023-04-23T23:19:45.629Z,100.00
2023-04-23T23:22:13.325Z,100.00
2023-04-23T23:24:42.360Z,100.00
2023-04-23T23:27:10.135Z,100.00
2023-04-23T23:29:37.915Z,100.00
2023-04-23T23:32:05.820Z,100.00
2023-04-23T23:34:33.661Z,100.00
2023-04-23T23:37:01.497Z,100.00
2023-04-23T23:39:29.136Z,100.00
2023-04-23T23:41:59.821Z,100.00
2023-04-23T23:44:27.696Z,100.00
2023-04-23T23:46:55.557Z,100.00
2023-04-23T23:49:25.000Z,100.00
2023-04-23T23:51:52.988Z,100.00
2023-04-23T23:54:21.206Z,100.00
2023-04-23T23:56:49.051Z,100.00
2023-04-23T23:59:18.059Z,100.00
